Time;durP1;ratioP1;P1;durP2;ratioP2;P2;SDS_P1;SDS_P2;PMS_P1;PMS_P2;Temp;Humidity;BMP_temperature;BMP_pressure;BME280_temperature;BME280_humidity;BME280_pressure;Samples;Min_cycle;Max_cycle;Signal;HPM_P1;HPM_P2
2023/08/12 00:00:13;;;;;;;19.50;12.23;;;;;;;20.64;100.00;101661.22;5051516;28;20025;-79
2023/08/12 00:02:43;;;;;;;18.25;11.80;;;;;;;20.57;100.00;101662.03;5048500;28;20028;-76
2023/08/12 00:05:12;;;;;;;17.60;11.88;;;;;;;20.55;100.00;101664.00;5019091;28;20025;-75
2023/08/12 00:07:42;;;;;;;14.27;11.02;;;;;;;20.53;100.00;101661.50;5030833;28;20033;-75
2023/08/12 00:10:09;;;;;;;16.52;11.55;;;;;;;20.52;100.00;101664.34;5030664;28;20030;-76
2023/08/12 00:12:35;;;;;;;15.60;11.10;;;;;;;20.53;100.00;101663.34;5017093;28;20079;-76
2023/08/12 00:15:02;;;;;;;18.20;11.43;;;;;;;20.52;100.00;101659.81;5050216;28;20219;-76
2023/08/12 00:17:28;;;;;;;17.70;11.85;;;;;;;20.55;100.00;101647.97;5050848;28;20208;-76
2023/08/12 00:19:53;;;;;;;17.33;11.02;;;;;;;20.56;100.00;101644.31;5035030;28;20386;-76
2023/08/12 00:22:18;;;;;;;17.30;11.40;;;;;;;20.55;100.00;101643.47;5030431;28;20392;-76
2023/08/12 00:24:44;;;;;;;21.48;11.95;;;;;;;20.55;100.00;101631.94;5048088;28;20029;-76
2023/08/12 00:27:10;;;;;;;16.58;10.75;;;;;;;20.55;100.00;101635.44;5031303;28;20020;-76
2023/08/12 00:29:35;;;;;;;17.13;11.10;;;;;;;20.56;100.00;101639.78;5049021;28;20036;-76
2023/08/12 00:32:01;;;;;;;13.55;10.75;;;;;;;20.54;100.00;101636.44;5050680;28;20104;-76
2023/08/12 00:34:27;;;;;;;16.20;10.50;;;;;;;20.55;100.00;101630.09;5040548;28;20785;-76
2023/08/12 00:36:52;;;;;;;16.02;10.35;;;;;;;20.56;100.00;101629.09;5032873;28;20032;-76
2023/08/12 00:39:18;;;;;;;17.33;11.10;;;;;;;20.54;100.00;101630.25;5043610;28;20036;-76
2023/08/12 00:41:43;;;;;;;15.30;10.80;;;;;;;20.52;100.00;101632.25;5037449;28;20538;-75
2023/08/12 00:44:08;;;;;;;16.55;11.93;;;;;;;20.53;100.00;101621.41;5045165;28;20513;-75
2023/08/12 00:46:35;;;;;;;17.67;11.35;;;;;;;20.51;100.00;101626.06;5047257;28;20056;-75
2023/08/12 00:49:00;;;;;;;19.20;11.35;;;;;;;20.52;100.00;101622.41;5047502;28;20523;-75
2023/08/12 00:51:26;;;;;;;14.60;11.57;;;;;;;20.50;100.00;101619.03;5034640;28;20025;-75
2023/08/12 00:53:52;;;;;;;16.40;11.52;;;;;;;20.50;100.00;101618.22;5035747;28;20358;-76
2023/08/12 00:56:18;;;;;;;18.27;11.43;;;;;;;20.48;100.00;101610.34;5046330;28;20033;-76
2023/08/12 00:58:44;;;;;;;15.73;11.38;;;;;;;20.46;100.00;101617.69;5045672;28;20110;-76
2023/08/12 01:01:11;;;;;;;19.02;11.35;;;;;;;20.46;100.00;101612.34;5043139;28;20034;-76
2023/08/12 01:03:37;;;;;;;16.90;12.23;;;;;;;20.44;100.00;101609.00;5046269;28;20029;-75
2023/08/12 01:06:03;;;;;;;16.50;11.68;;;;;;;20.46;100.00;101600.81;5041222;28;20029;-75
2023/08/12 01:08:31;;;;;;;17.52;11.85;;;;;;;20.46;100.00;101601.66;5029127;28;20033;-75
2023/08/12 01:11:07;;;;;;;17.67;12.20;;;;;;;20.46;100.00;101601.66;5032978;28;20090;-75
2023/08/12 01:13:46;;;;;;;16.58;12.23;;;;;;;20.46;100.00;101600.81;5036956;28;20030;-76
2023/08/12 01:16:15;;;;;;;16.73;11.82;;;;;;;20.43;100.00;101590.44;5030018;28;20572;-75
2023/08/12 01:18:41;;;;;;;14.85;11.30;;;;;;;20.43;100.00;101591.28;5030615;28;20160;-76
2023/08/12 01:21:09;;;;;;;18.27;11.98;;;;;;;20.42;100.00;101584.25;5042846;28;20047;-76
2023/08/12 01:23:35;;;;;;;16.95;12.27;;;;;;;20.45;100.00;101583.09;5050850;28;20031;-77
2023/08/12 01:26:00;;;;;;;20.83;12.95;;;;;;;20.39;100.00;101573.81;5034088;28;20033;-76
2023/08/12 01:28:25;;;;;;;16.15;11.63;;;;;;;20.38;100.00;101577.50;5036043;28;20499;-76
2023/08/12 01:31:12;;;;;;;14.95;11.63;;;;;;;20.37;100.00;101575.81;5041264;28;20104;-76
2023/08/12 01:34:21;;;;;;;17.77;11.77;;;;;;;20.40;100.00;101572.84;5050334;28;20029;-76
2023/08/12 01:36:54;;;;;;;14.75;11.63;;;;;;;20.34;100.00;101565.44;5037449;28;20040;-76
2023/08/12 01:39:21;;;;;;;17.48;11.43;;;;;;;20.34;100.00;101562.78;5030084;28;20045;-76
2023/08/12 01:41:47;;;;;;;19.63;12.20;;;;;;;20.32;100.00;101562.09;5024957;28;20017;-76
2023/08/12 01:44:12;;;;;;;17.77;11.75;;;;;;;20.31;100.00;101569.28;5011892;28;20489;-76
2023/08/12 01:46:38;;;;;;;17.23;11.20;;;;;;;20.31;100.00;101560.41;5026934;28;20045;-76
2023/08/12 01:49:03;;;;;;;15.88;11.25;;;;;;;20.33;100.00;101563.75;5042897;28;20489;-76
2023/08/12 01:51:29;;;;;;;16.50;10.95;;;;;;;20.29;100.00;101562.41;5038430;28;20183;-76
2023/08/12 01:53:55;;;;;;;17.05;11.50;;;;;;;20.29;100.00;101557.06;5049020;28;20056;-76
2023/08/12 01:56:20;;;;;;;15.43;10.45;;;;;;;20.28;100.00;101555.38;5048492;28;20036;-75
2023/08/12 01:58:45;;;;;;;15.68;10.10;;;;;;;20.26;100.00;101554.72;5030039;28;20100;-76
2023/08/12 02:01:11;;;;;;;17.55;10.48;;;;;;;20.23;100.00;101553.19;5027753;28;20028;-76
2023/08/12 02:03:36;;;;;;;16.50;10.73;;;;;;;20.25;100.00;101550.38;5042565;28;20112;-76
2023/08/12 02:06:02;;;;;;;15.60;10.07;;;;;;;20.23;100.00;101544.34;5040417;28;20037;-75
2023/08/12 02:08:27;;;;;;;15.25;10.38;;;;;;;20.23;100.00;101550.53;5045517;28;20094;-75
2023/08/12 02:10:52;;;;;;;16.67;9.73;;;;;;;20.20;100.00;101547.34;5032421;28;20032;-76
2023/08/12 02:13:18;;;;;;;13.80;9.52;;;;;;;20.19;100.00;101540.31;5039477;28;20021;-75
2023/08/12 02:15:43;;;;;;;16.02;9.48;;;;;;;20.19;100.00;101540.31;5040316;28;20499;-75
2023/08/12 02:18:09;;;;;;;15.70;9.25;;;;;;;20.21;100.00;101546.34;5022911;28;20029;-75
2023/08/12 02:20:34;;;;;;;18.17;10.02;;;;;;;20.18;100.00;101544.81;5036410;28;20111;-76
2023/08/12 02:23:00;;;;;;;14.85;9.75;;;;;;;20.16;100.00;101537.97;5040503;28;20052;-75
2023/08/12 02:25:25;;;;;;;13.23;9.20;;;;;;;20.15;100.00;101534.47;5045534;28;20464;-75
2023/08/12 02:27:50;;;;;;;15.10;9.23;;;;;;;20.12;100.00;101532.09;5047233;28;20132;-75
2023/08/12 02:30:16;;;;;;;16.17;8.70;;;;;;;20.13;100.00;101524.94;5048007;28;20103;-75
2023/08/12 02:32:43;;;;;;;11.18;8.50;;;;;;;20.11;100.00;101527.75;5046215;28;20091;-74
2023/08/12 02:35:09;;;;;;;15.80;9.38;;;;;;;20.09;100.00;101523.56;5024438;28;20041;-76
2023/08/12 02:37:34;;;;;;;16.67;8.88;;;;;;;20.07;100.00;101534.41;5032669;28;20020;-75
2023/08/12 02:40:00;;;;;;;16.10;8.77;;;;;;;20.03;100.00;101523.22;5040612;28;20511;-75
2023/08/12 02:42:25;;;;;;;14.43;8.30;;;;;;;20.02;100.00;101518.88;5034741;28;20029;-76
2023/08/12 02:44:51;;;;;;;14.98;9.07;;;;;;;20.00;100.00;101512.81;5037934;28;20870;-76
2023/08/12 02:47:16;;;;;;;14.20;8.35;;;;;;;20.01;100.00;101511.84;5040180;28;20063;-76
2023/08/12 02:49:43;;;;;;;12.88;8.60;;;;;;;20.00;100.00;101507.47;5043855;28;20025;-76
2023/08/12 02:52:09;;;;;;;13.18;8.82;;;;;;;19.98;100.00;101505.97;5027593;28;20028;-75
2023/08/12 02:54:34;;;;;;;15.77;8.95;;;;;;;19.94;100.00;101505.44;5045366;28;20029;-75
2023/08/12 02:57:00;;;;;;;11.20;8.43;;;;;;;19.97;100.00;101505.13;5045436;28;20028;-75
2023/08/12 02:59:27;;;;;;;11.80;8.32;;;;;;;19.96;100.00;101498.09;5047977;28;20025;-75
2023/08/12 03:01:52;;;;;;;13.38;8.00;;;;;;;19.93;100.00;101498.41;5035865;28;20075;-75
2023/08/12 03:04:17;;;;;;;13.85;7.43;;;;;;;19.90;100.00;101498.75;5052516;28;20377;-76
2023/08/12 03:06:43;;;;;;;13.00;8.07;;;;;;;19.90;100.00;101498.75;5050354;28;20021;-75
2023/08/12 03:09:08;;;;;;;12.32;7.35;;;;;;;19.86;100.00;101497.38;5038438;28;20077;-76
2023/08/12 03:11:34;;;;;;;12.00;7.60;;;;;;;19.88;100.00;101495.38;5032415;28;20032;-76
2023/08/12 03:13:59;;;;;;;12.77;7.85;;;;;;;19.83;100.00;101487.00;5049463;28;20025;-76
2023/08/12 03:16:24;;;;;;;13.45;8.15;;;;;;;19.85;100.00;101489.53;5052346;28;20108;-76
2023/08/12 03:18:50;;;;;;;10.35;7.60;;;;;;;19.82;100.00;101484.50;5052254;28;20040;-76
2023/08/12 03:21:15;;;;;;;12.55;7.50;;;;;;;19.79;100.00;101483.00;5048060;28;20025;-76
2023/08/12 03:23:44;;;;;;;12.90;7.72;;;;;;;19.79;100.00;101483.00;5039144;28;20032;-75
2023/08/12 03:26:09;;;;;;;11.00;7.88;;;;;;;19.78;100.00;101483.97;5029493;28;20087;-75
2023/08/12 03:28:35;;;;;;;15.70;7.57;;;;;;;19.78;100.00;101475.13;5040819;28;20021;-77
2023/08/12 03:31:00;;;;;;;10.25;7.40;;;;;;;19.77;100.00;101474.31;5048587;28;20035;-78
2023/08/12 03:33:26;;;;;;;14.18;8.55;;;;;;;19.71;100.00;101473.09;5049309;28;20120;-77
2023/08/12 03:35:51;;;;;;;14.45;8.40;;;;;;;19.69;100.00;101463.56;5049618;28;20029;-76
2023/08/12 03:38:17;;;;;;;12.50;8.30;;;;;;;19.69;100.00;101463.56;5040689;28;20037;-76
2023/08/12 03:40:42;;;;;;;12.38;8.73;;;;;;;19.67;100.00;101457.56;5029192;28;20021;-76
2023/08/12 03:43:08;;;;;;;13.55;8.45;;;;;;;19.62;100.00;101451.84;5022252;28;20515;-76
2023/08/12 03:45:43;;;;;;;17.98;9.48;;;;;;;19.64;100.00;101460.53;5020523;28;20045;-76
2023/08/12 03:48:09;;;;;;;13.25;8.40;;;;;;;19.57;100.00;101456.81;5010623;28;20028;-76
2023/08/12 03:50:39;;;;;;;15.90;7.93;;;;;;;19.56;100.00;101452.47;5030293;28;20033;-76
2023/08/12 03:53:05;;;;;;;11.77;7.85;;;;;;;19.54;100.00;101449.09;5033026;28;20489;-76
2023/08/12 03:55:32;;;;;;;13.38;7.78;;;;;;;19.53;100.00;101450.09;5048139;28;20121;-76
2023/08/12 03:57:58;;;;;;;10.55;7.38;;;;;;;19.52;100.00;101445.72;5051999;28;20028;-76
2023/08/12 04:00:23;;;;;;;10.15;7.10;;;;;;;19.54;100.00;101433.94;5036905;28;21846;-76
2023/08/12 04:02:48;;;;;;;11.18;7.28;;;;;;;19.54;100.00;101435.75;5030902;28;20036;-76
2023/08/12 04:05:14;;;;;;;10.48;7.28;;;;;;;19.53;100.00;101444.75;5031860;28;20056;-75
2023/08/12 04:07:39;;;;;;;10.27;6.90;;;;;;;19.50;100.00;101437.03;5030431;28;20473;-76
2023/08/12 04:10:05;;;;;;;10.95;6.60;;;;;;;19.51;100.00;101433.38;5031094;28;20064;-76
2023/08/12 04:12:30;;;;;;;11.35;6.03;;;;;;;19.48;100.00;101429.19;5045923;28;20025;-76
2023/08/12 04:14:56;;;;;;;10.45;6.03;;;;;;;19.49;100.00;101419.34;5049132;28;20388;-76
2023/08/12 04:17:21;;;;;;;10.32;5.97;;;;;;;19.45;100.00;101421.50;5022886;28;20473;-76
2023/08/12 04:19:47;;;;;;;10.07;5.70;;;;;;;19.45;100.00;101426.84;5030110;28;20064;-77
2023/08/12 04:22:12;;;;;;;9.20;5.57;;;;;;;19.43;100.00;101426.16;5045330;28;20021;-76
2023/08/12 04:24:38;;;;;;;8.75;5.40;;;;;;;19.45;100.00;101428.66;5046604;28;20361;-78
2023/08/12 04:27:03;;;;;;;10.27;5.25;;;;;;;19.45;100.00;101426.84;5046979;28;20029;-78
2023/08/12 04:29:29;;;;;;;8.90;5.88;;;;;;;19.45;100.00;101431.34;5045222;28;20029;-79
2023/08/12 04:31:54;;;;;;;10.77;6.50;;;;;;;19.41;100.00;101433.50;5035744;28;20102;-78
2023/08/12 04:34:20;;;;;;;13.05;6.50;;;;;;;19.41;100.00;101430.81;5024371;28;20026;-79
2023/08/12 04:36:45;;;;;;;11.15;6.78;;;;;;;19.38;100.00;101434.63;5030824;28;20053;-79
2023/08/12 04:39:10;;;;;;;11.35;6.90;;;;;;;19.33;100.00;101431.59;5029883;28;20100;-79
2023/08/12 04:41:38;;;;;;;10.77;6.80;;;;;;;19.34;100.00;101419.09;5039895;28;20432;-78
2023/08/12 04:44:04;;;;;;;11.27;7.22;;;;;;;19.36;100.00;101414.44;5028891;28;20017;-78
2023/08/12 04:46:30;;;;;;;10.95;8.13;;;;;;;19.32;100.00;101408.59;5038529;28;20137;-77
2023/08/12 04:48:55;;;;;;;11.95;8.32;;;;;;;19.34;100.00;101419.94;5031995;28;20153;-78
2023/08/12 04:51:20;;;;;;;11.60;8.20;;;;;;;19.34;100.00;101414.59;5030654;28;20025;-77
2023/08/12 04:53:46;;;;;;;11.00;7.97;;;;;;;19.30;100.00;101407.06;5044978;28;20053;-76
2023/08/12 04:56:11;;;;;;;12.85;7.97;;;;;;;19.29;100.00;101408.91;5051056;28;20533;-77
2023/08/12 04:58:37;;;;;;;11.10;7.68;;;;;;;19.28;100.00;101404.56;5034811;28;20071;-77
2023/08/12 05:01:03;;;;;;;10.40;7.22;;;;;;;19.27;100.00;101394.88;5045719;28;20746;-78
2023/08/12 05:03:28;;;;;;;13.65;7.38;;;;;;;19.25;100.00;101399.53;5030233;28;20488;-78
2023/08/12 05:05:54;;;;;;;11.98;7.63;;;;;;;19.24;100.00;101397.03;5025177;28;20029;-78
2023/08/12 05:08:19;;;;;;;10.30;6.22;;;;;;;19.21;100.00;101395.50;5010964;28;20173;-78
2023/08/12 05:10:47;;;;;;;10.18;6.95;;;;;;;19.18;100.00;101401.13;5010937;28;20553;-77
2023/08/12 05:13:13;;;;;;;10.75;6.88;;;;;;;19.18;100.00;101395.78;5026025;28;20025;-76
2023/08/12 05:15:39;;;;;;;10.32;6.68;;;;;;;19.18;100.00;101384.28;5040910;28;20485;-76
2023/08/12 05:18:05;;;;;;;10.18;7.70;;;;;;;19.15;100.00;101393.44;5028797;28;20032;-77
2023/08/12 05:20:30;;;;;;;10.10;7.43;;;;;;;19.16;100.00;101397.78;5029220;28;20501;-76
2023/08/12 05:22:56;;;;;;;9.88;7.35;;;;;;;19.16;100.00;101395.09;5021664;28;20117;-76
2023/08/12 05:25:21;;;;;;;8.80;6.80;;;;;;;19.15;100.00;101380.09;5033346;28;20025;-76
2023/08/12 05:27:46;;;;;;;9.43;6.90;;;;;;;19.12;100.00;101383.06;5029768;28;20025;-77
2023/08/12 05:30:23;;;;;;;8.45;6.60;;;;;;;19.11;100.00;101389.41;5035022;28;20036;-77
2023/08/12 05:32:51;;;;;;;9.82;6.65;;;;;;;19.07;100.00;101382.72;5033664;28;20143;-76
2023/08/12 05:35:16;;;;;;;9.88;6.32;;;;;;;19.08;100.00;101379.06;5036084;28;20029;-77
2023/08/12 05:37:41;;;;;;;8.27;6.03;;;;;;;19.07;100.00;101377.38;5035923;28;20083;-77
2023/08/12 05:40:11;;;;;;;6.55;5.55;;;;;;;19.06;100.00;101389.03;5032660;28;20163;-76
2023/08/12 05:42:37;;;;;;;6.35;4.97;;;;;;;19.06;100.00;101376.53;5040060;28;20036;-76
2023/08/12 05:45:06;;;;;;;6.93;5.50;;;;;;;19.07;100.00;101372.03;5031460;28;20025;-76
2023/08/12 05:47:32;;;;;;;7.72;5.63;;;;;;;19.06;100.00;101378.38;5030571;28;20063;-77
2023/08/12 05:49:57;;;;;;;8.52;5.43;;;;;;;19.06;100.00;101375.69;5027650;28;20083;-76
2023/08/12 05:52:23;;;;;;;7.03;5.30;;;;;;;19.06;100.00;101381.03;5040937;28;20056;-76
2023/08/12 05:54:48;;;;;;;6.82;5.20;;;;;;;19.03;100.00;101376.00;5029151;28;20500;-77
2023/08/12 05:57:14;;;;;;;8.40;5.10;;;;;;;19.05;100.00;101374.03;5023054;28;20066;-77
2023/08/12 05:59:39;;;;;;;8.57;5.45;;;;;;;19.05;100.00;101374.03;5028333;28;20032;-77
2023/08/12 06:02:04;;;;;;;7.05;5.00;;;;;;;19.06;100.00;101373.03;5044196;28;20032;-77
2023/08/12 06:04:30;;;;;;;8.40;5.05;;;;;;;19.05;100.00;101366.03;5035344;28;20024;-77
2023/08/12 06:06:55;;;;;;;6.15;5.15;;;;;;;19.06;100.00;101365.03;5041599;28;20032;-77
2023/08/12 06:09:21;;;;;;;6.45;5.38;;;;;;;19.07;100.00;101367.53;5037000;28;20025;-77
2023/08/12 06:11:47;;;;;;;6.40;5.50;;;;;;;19.07;100.00;101362.22;5033518;28;20031;-77
2023/08/12 06:14:12;;;;;;;7.65;5.40;;;;;;;19.11;100.00;101362.72;5021637;28;20474;-77
2023/08/12 06:16:38;;;;;;;7.40;5.80;;;;;;;19.14;100.00;101359.75;5035107;28;20025;-78
2023/08/12 06:19:03;;;;;;;6.22;4.90;;;;;;;19.13;100.00;101360.75;5011158;28;20054;-78
2023/08/12 06:21:28;;;;;;;5.15;4.65;;;;;;;19.13;100.00;101355.41;5010272;28;20026;-77
2023/08/12 06:23:55;;;;;;;5.55;4.85;;;;;;;19.15;100.00;101353.41;5009416;28;20102;-77
2023/08/12 06:26:20;;;;;;;5.68;4.95;;;;;;;19.17;100.00;101350.59;5010293;28;20076;-78
2023/08/12 06:28:46;;;;;;;5.93;4.80;;;;;;;19.18;100.00;101347.75;5030412;28;20484;-77
2023/08/12 06:31:11;;;;;;;4.40;3.90;;;;;;;19.19;100.00;101338.75;5048768;28;20028;-78
2023/08/12 06:33:37;;;;;;;5.65;4.50;;;;;;;19.19;100.00;101344.09;5047811;28;20059;-77
2023/08/12 06:36:02;;;;;;;5.88;4.32;;;;;;;19.22;100.00;101337.66;5025130;28;20056;-77
2023/08/12 06:38:28;;;;;;;5.18;3.80;;;;;;;19.22;100.00;101333.16;5032651;28;20032;-77
2023/08/12 06:40:55;;;;;;;4.18;3.78;;;;;;;19.24;100.00;101339.16;5033166;28;20393;-77
2023/08/12 06:43:20;;;;;;;4.07;3.35;;;;;;;19.23;100.00;101333.97;5032948;28;20021;-77
2023/08/12 06:45:45;;;;;;;3.80;3.35;;;;;;;19.26;100.00;101331.84;5032203;28;20068;-78
2023/08/12 06:48:11;;;;;;;3.53;3.22;;;;;;;19.30;100.00;101330.53;5032935;28;20022;-77
2023/08/12 06:50:36;;;;;;;4.38;3.90;;;;;;;19.32;100.00;101336.53;5028720;28;20492;-77
2023/08/12 06:53:02;;;;;;;4.15;3.75;;;;;;;19.35;100.00;101327.38;5030120;28;20037;-77
2023/08/12 06:55:27;;;;;;;3.58;3.28;;;;;;;19.38;100.00;101327.88;5050567;28;20029;-77
2023/08/12 06:57:53;;;;;;;3.60;3.30;;;;;;;19.44;100.00;101325.56;5052659;28;20378;-77
2023/08/12 07:00:18;;;;;;;3.38;3.10;;;;;;;19.45;100.00;101321.91;5052092;28;20029;-77
2023/08/12 07:02:44;;;;;;;3.88;3.58;;;;;;;19.50;100.00;101322.25;5052597;28;20021;-77
2023/08/12 07:05:09;;;;;;;4.13;3.72;;;;;;;19.51;100.00;101326.59;5051899;28;20032;-78
2023/08/12 07:07:35;;;;;;;5.00;4.20;;;;;;;19.48;100.00;101321.59;5045849;28;20030;-78
2023/08/12 07:10:00;;;;;;;4.60;4.20;;;;;;;19.54;100.00;101327.16;5027459;28;20498;-78
2023/08/12 07:12:26;;;;;;;4.90;4.50;;;;;;;19.53;100.00;101327.31;5032701;28;20036;-77
2023/08/12 07:14:51;;;;;;;4.80;4.40;;;;;;;19.56;100.00;101318.97;5031721;28;20120;-77
2023/08/12 07:17:17;;;;;;;8.23;4.85;;;;;;;19.53;100.00;101321.97;5033209;28;20064;-78
2023/08/12 07:19:42;;;;;;;5.20;4.80;;;;;;;19.54;100.00;101318.31;5031400;28;20022;-78
2023/08/12 07:22:08;;;;;;;5.47;4.97;;;;;;;19.55;100.00;101317.31;5033184;28;20083;-78
2023/08/12 07:24:33;;;;;;;5.85;5.40;;;;;;;19.59;100.00;101324.00;5033480;28;20079;-79
2023/08/12 07:26:58;;;;;;;5.40;5.00;;;;;;;19.57;100.00;101326.00;5025812;28;20463;-78
2023/08/12 07:29:24;;;;;;;12.50;5.22;;;;;;;19.56;100.00;101318.97;5047351;28;20037;-80
2023/08/12 07:31:49;;;;;;;4.93;4.63;;;;;;;19.59;100.00;101324.84;5052550;28;20055;-77
2023/08/12 07:34:15;;;;;;;5.80;5.30;;;;;;;19.61;100.00;101324.66;5052164;28;20028;-78
2023/08/12 07:36:40;;;;;;;4.78;4.47;;;;;;;19.63;100.00;101326.22;5051818;28;20025;-79
2023/08/12 07:39:06;;;;;;;5.55;4.60;;;;;;;19.65;100.00;101316.22;5051560;28;20027;-78
2023/08/12 07:41:32;;;;;;;4.90;4.50;;;;;;;19.64;100.00;101325.22;5052055;28;20029;-78
2023/08/12 07:43:57;;;;;;;4.20;3.90;;;;;;;19.67;100.00;101322.22;5032512;28;20018;-78
2023/08/12 07:46:23;;;;;;;4.20;3.80;;;;;;;19.69;100.00;101320.22;5031771;28;20057;-76
2023/08/12 07:48:48;;;;;;;4.35;3.80;;;;;;;19.70;100.00;101313.88;5031115;28;20025;-78
2023/08/12 07:51:13;;;;;;;4.00;3.70;;;;;;;19.76;100.00;101314.25;5031685;28;20473;-78
2023/08/12 07:53:39;;;;;;;4.90;3.70;;;;;;;19.77;100.00;101316.75;5033496;28;20186;-77
2023/08/12 07:56:04;;;;;;;3.70;3.40;;;;;;;19.80;100.00;101316.41;5050974;28;20029;-78
2023/08/12 07:58:30;;;;;;;3.72;2.80;;;;;;;19.84;100.00;101324.94;5051587;28;20021;-78
2023/08/12 08:00:55;;;;;;;2.80;2.60;;;;;;;19.90;100.00;101327.78;5049316;28;20361;-78
2023/08/12 08:03:21;;;;;;;5.22;2.95;;;;;;;19.95;100.00;101325.47;5025922;28;20033;-77
2023/08/12 08:05:46;;;;;;;4.00;2.95;;;;;;;20.05;100.00;101332.53;5030066;28;20057;-77
2023/08/12 08:08:13;;;;;;;3.63;2.83;;;;;;;20.17;100.00;101328.53;5031277;28;20108;-78
2023/08/12 08:10:38;;;;;;;2.53;2.10;;;;;;;20.15;100.00;101334.06;5031164;28;20048;-76
2023/08/12 08:13:03;;;;;;;2.40;2.15;;;;;;;20.18;100.00;101338.22;5031521;28;20033;-77
2023/08/12 08:15:29;;;;;;;1.90;1.80;;;;;;;20.16;100.00;101341.06;5029456;28;20404;-76
2023/08/12 08:17:54;;;;;;;2.90;2.60;;;;;;;20.13;100.00;101351.25;5023022;28;20029;-77
2023/08/12 08:20:20;;;;;;;2.72;2.53;;;;;;;20.09;100.00;101349.91;5030691;28;20540;-76
2023/08/12 08:22:45;;;;;;;2.85;2.65;;;;;;;20.10;100.00;101354.25;5031037;28;20025;-77
2023/08/12 08:25:12;;;;;;;2.72;2.53;;;;;;;20.14;100.00;101351.09;5032077;28;20089;-78
2023/08/12 08:27:38;;;;;;;3.15;2.95;;;;;;;20.22;100.00;101350.25;5033216;28;20112;-78
2023/08/12 08:30:04;;;;;;;3.70;3.40;;;;;;;20.33;100.00;101350.78;5051110;28;20473;-79
2023/08/12 08:32:29;;;;;;;4.68;4.38;;;;;;;20.39;100.00;101354.63;5051673;28;20029;-78
2023/08/12 08:34:55;;;;;;;5.38;4.97;;;;;;;20.40;100.00;101353.66;5047816;28;20057;-78
2023/08/12 08:37:20;;;;;;;6.03;5.63;;;;;;;20.36;100.00;101354.94;5025013;28;20432;-78
2023/08/12 08:39:46;;;;;;;6.45;6.05;;;;;;;20.45;100.00;101356.69;5031478;28;20052;-78
2023/08/12 08:42:12;;;;;;;7.40;6.90;;;;;;;20.51;100.00;101363.22;5031478;28;20030;-78
2023/08/12 08:44:41;;;;;;;8.25;7.65;;;;;;;20.52;100.00;101363.03;5029892;28;20025;-78
2023/08/12 08:47:08;;;;;;;8.43;7.82;;;;;;;20.56;100.00;101361.72;5031092;28;20466;-78
2023/08/12 08:49:35;;;;;;;10.90;8.80;;;;;;;20.55;100.00;101365.38;5031006;28;20076;-78
2023/08/12 08:52:01;;;;;;;11.30;10.40;;;;;;;20.54;100.00;101369.06;5022559;28;20030;-78
2023/08/12 08:54:27;;;;;;;11.70;10.73;;;;;;;20.52;100.00;101364.88;5040009;28;20068;-78
2023/08/12 08:56:53;;;;;;;11.32;10.35;;;;;;;20.45;100.00;101372.72;5050227;28;20044;-78
2023/08/12 08:59:21;;;;;;;10.85;9.88;;;;;;;20.40;100.00;101367.00;5049033;28;20071;-78
2023/08/12 09:01:47;;;;;;;8.55;7.95;;;;;;;20.35;100.00;101363.97;5050206;28;20048;-79
2023/08/12 09:04:15;;;;;;;7.32;6.78;;;;;;;20.32;100.00;101365.13;5048952;28;20128;-78
2023/08/12 09:06:41;;;;;;;6.88;6.28;;;;;;;20.35;100.00;101374.66;5049760;28;20036;-78
2023/08/12 09:09:12;;;;;;;5.70;5.30;;;;;;;20.37;100.00;101378.00;5026818;28;20048;-78
2023/08/12 09:11:45;;;;;;;4.78;4.35;;;;;;;20.39;100.00;101375.16;5010297;28;20433;-78
2023/08/12 09:14:11;;;;;;;4.35;4.05;;;;;;;20.49;100.00;101384.75;5025454;28;20117;-77
2023/08/12 09:16:36;;;;;;;4.00;3.60;;;;;;;20.54;100.00;101386.94;5025967;28;20061;-77
2023/08/12 09:19:03;;;;;;;3.90;3.60;;;;;;;20.52;100.00;101397.81;5009555;28;20072;-77
2023/08/12 09:21:28;;;;;;;8.20;3.90;;;;;;;20.49;100.00;101410.66;5010449;28;20053;-78
2023/08/12 09:23:54;;;;;;;4.43;2.80;;;;;;;20.45;100.00;101410.16;5011952;28;20459;-78
2023/08/12 09:26:20;;;;;;;4.10;2.90;;;;;;;20.39;100.00;101409.91;5029732;28;20032;-77
2023/08/12 09:28:47;;;;;;;5.68;2.10;;;;;;;20.32;100.00;101407.06;5040775;28;20104;-77
2023/08/12 09:31:24;;;;;;;2.30;2.10;;;;;;;20.30;100.00;101412.56;5050486;28;20033;-78
2023/08/12 09:33:50;;;;;;;3.75;2.17;;;;;;;20.22;100.00;101412.56;5049772;28;20104;-79
2023/08/12 09:36:16;;;;;;;2.58;2.38;;;;;;;20.27;100.00;101415.56;5050403;28;20028;-77
2023/08/12 09:38:45;;;;;;;3.30;2.20;;;;;;;20.20;100.00;101421.75;5049148;28;20408;-77
2023/08/12 09:41:10;;;;;;;3.80;2.53;;;;;;;20.22;100.00;101417.91;5028297;28;20385;-79
2023/08/12 09:43:41;;;;;;;2.78;2.17;;;;;;;20.22;100.00;101425.91;5030884;28;20032;-80
2023/08/12 09:46:15;;;;;;;4.80;2.28;;;;;;;20.23;100.00;101422.25;5030417;28;20092;-80
2023/08/12 09:48:43;;;;;;;3.28;2.50;;;;;;;20.35;100.00;101417.44;5030215;28;20029;-80
2023/08/12 09:51:10;;;;;;;3.38;2.38;;;;;;;20.42;100.00;101418.50;5030168;28;20033;-80
2023/08/12 09:53:36;;;;;;;3.20;2.63;;;;;;;20.46;100.00;101414.50;5033213;28;20416;-79
2023/08/12 09:56:07;;;;;;;4.75;2.42;;;;;;;20.50;100.00;101426.53;5048216;28;20021;-80
2023/08/12 09:58:33;;;;;;;2.60;2.20;;;;;;;20.51;100.00;101430.88;5035760;28;20029;-80
2023/08/12 10:00:59;;;;;;;4.80;2.80;;;;;;;20.68;100.00;101423.72;5009327;28;20077;-80
2023/08/12 10:03:25;;;;;;;3.75;2.63;;;;;;;20.79;100.00;101430.56;5009652;28;20026;-77
2023/08/12 10:05:52;;;;;;;4.03;2.60;;;;;;;20.89;100.00;101425.94;5024695;28;20067;-77
2023/08/12 10:08:18;;;;;;;3.03;2.45;;;;;;;20.89;100.00;101431.28;5008723;28;20409;-78
2023/08/12 10:10:44;;;;;;;4.72;2.20;;;;;;;21.05;100.00;101428.59;5009428;28;20041;-78
2023/08/12 10:13:11;;;;;;;5.47;2.20;;;;;;;21.16;100.00;101430.91;5009368;28;20030;-78
2023/08/12 10:15:39;;;;;;;4.72;1.98;;;;;;;21.27;100.00;101421.78;5015192;28;20034;-79
2023/08/12 10:18:05;;;;;;;4.65;1.70;;;;;;;21.27;100.00;101419.09;5029038;28;20052;-78
2023/08/12 10:20:35;;;;;;;6.43;2.22;;;;;;;21.29;100.00;101421.59;5028986;28;20036;-79
2023/08/12 10:23:02;;;;;;;3.42;1.60;;;;;;;21.50;100.00;101436.09;5027042;28;20021;-79
2023/08/12 10:25:32;;;;;;;6.82;1.92;;;;;;;21.59;100.00;101435.06;5028959;28;20021;-78
2023/08/12 10:27:57;;;;;;;4.95;1.80;;;;;;;21.49;100.00;101417.53;5032318;28;20819;-80
2023/08/12 10:30:28;;;;;;;5.20;1.70;;;;;;;21.54;100.00;101417.84;5043153;28;20032;-80
2023/08/12 10:32:54;;;;;;;5.40;1.70;;;;;;;21.54;99.85;101409.81;5025471;28;20035;-79
2023/08/12 10:35:19;;;;;;;6.25;1.77;;;;;;;21.82;99.93;101419.13;5028774;28;20026;-80
2023/08/12 10:37:49;;;;;;;6.80;1.80;;;;;;;22.03;99.85;101420.41;5027513;28;20033;-80
2023/08/12 10:40:22;;;;;;;2.92;1.73;;;;;;;22.07;99.04;101422.59;5029286;28;20082;-79
2023/08/12 10:42:49;;;;;;;5.60;2.13;;;;;;;22.20;98.39;101428.22;5029698;28;20478;-79
2023/08/12 10:45:18;;;;;;;4.50;1.58;;;;;;;22.19;98.69;101433.75;5027372;28;20021;-80
2023/08/12 10:48:16;;;;;;;5.78;1.70;;;;;;;22.32;98.76;101436.69;5027087;28;20497;-79
2023/08/12 10:50:48;;;;;;;4.97;1.50;;;;;;;22.41;94.00;101435.63;5004285;28;20486;-79
2023/08/12 10:53:30;;;;;;;4.13;2.07;;;;;;;22.46;96.51;101433.28;5009640;28;20397;-80
2023/08/12 10:56:00;;;;;;;4.80;1.65;;;;;;;22.55;91.09;101436.72;5008137;28;20334;-80
2023/08/12 10:58:41;;;;;;;4.38;2.00;;;;;;;22.64;90.39;101435.66;5009099;28;20029;-80
2023/08/12 11:01:16;;;;;;;5.15;1.83;;;;;;;22.50;85.76;101442.63;5009933;28;20083;-80
2023/08/12 11:03:42;;;;;;;6.40;1.85;;;;;;;22.50;86.93;101448.00;5009436;28;20391;-79
2023/08/12 11:06:12;;;;;;;6.13;1.80;;;;;;;22.66;84.64;101447.03;5011272;28;20153;-78
2023/08/12 11:08:54;;;;;;;5.88;1.98;;;;;;;22.69;85.43;101451.22;5028495;28;20033;-78